Time;durP1;ratioP1;P1;durP2;ratioP2;P2;SDS_P1;SDS_P2;PMS_P1;PMS_P2;Temp;Humidity;BMP_temperature;BMP_pressure;BME280_temperature;BME280_humidity;BME280_pressure;Samples;Min_cycle;Max_cycle;Signal;HPM_P1;HPM_P2
2021/08/31 00:03:26;;;;;;;42.00;39.20;;;;;;;16.11;100.00;102783.14;1972010;73;32990;-73
2021/08/31 00:08:50;;;;;;;41.10;38.50;;;;;;;16.07;100.00;102782.00;1972189;73;32900;-74
2021/08/31 00:14:17;;;;;;;42.23;39.27;;;;;;;16.02;100.00;102783.94;1972191;72;33402;-70
2021/08/31 00:19:41;;;;;;;42.87;39.80;;;;;;;15.99;100.00;102785.34;1972132;73;33456;-74
2021/08/31 00:25:09;;;;;;;42.10;39.27;;;;;;;16.03;100.00;102783.67;1972256;73;33559;-70
2021/08/31 00:30:33;;;;;;;45.67;42.53;;;;;;;16.02;100.00;102792.34;1972004;73;33039;-70
2021/08/31 00:36:00;;;;;;;43.07;40.03;;;;;;;15.97;100.00;102795.97;1971933;73;32995;-74
2021/08/31 00:41:24;;;;;;;42.70;39.80;;;;;;;15.97;100.00;102796.53;1972223;72;31499;-70
2021/08/31 00:46:51;;;;;;;42.40;39.63;;;;;;;15.99;100.00;102791.50;1972157;73;33459;-71
2021/08/31 00:52:16;;;;;;;41.63;38.83;;;;;;;15.97;100.00;102797.38;1972184;73;33411;-70
2021/08/31 00:57:43;;;;;;;43.83;40.87;;;;;;;15.93;100.00;102801.29;1972244;73;33463;-71
2021/08/31 01:03:10;;;;;;;43.57;40.77;;;;;;;16.05;100.00;102791.79;1972198;73;33529;-70
2021/08/31 01:08:35;;;;;;;44.03;41.00;;;;;;;16.08;100.00;102789.86;1972190;73;33410;-70
2021/08/31 01:14:03;;;;;;;42.90;39.97;;;;;;;16.06;100.00;102783.67;1972248;73;33497;-73
2021/08/31 01:19:31;;;;;;;43.40;40.40;;;;;;;16.15;100.00;102780.62;1972179;73;33398;-74
2021/08/31 01:24:58;;;;;;;43.03;40.23;;;;;;;16.08;100.00;102780.89;1972165;73;32902;-70
2021/08/31 01:30:23;;;;;;;43.27;40.50;;;;;;;16.05;100.00;102782.83;1972221;73;32957;-70
2021/08/31 01:35:50;;;;;;;43.77;40.37;;;;;;;16.09;100.00;102775.55;1971907;72;33081;-73
2021/08/31 01:41:16;;;;;;;42.83;39.73;;;;;;;16.01;100.00;102783.09;1972226;73;33467;-70
2021/08/31 01:46:41;;;;;;;45.43;42.10;;;;;;;16.06;100.00;102775.26;1972199;73;33427;-70
2021/08/31 01:52:07;;;;;;;44.50;41.40;;;;;;;16.11;100.00;102776.68;1972131;73;33566;-73
2021/08/31 01:57:34;;;;;;;44.30;40.90;;;;;;;15.98;100.00;102779.45;1971938;73;32987;-74
2021/08/31 02:03:00;;;;;;;44.00;41.10;;;;;;;16.09;100.00;102778.35;1971957;73;33017;-73
2021/08/31 02:08:25;;;;;;;44.67;41.53;;;;;;;16.10;100.00;102780.05;1972101;73;32910;-70
2021/08/31 02:13:50;;;;;;;44.13;41.33;;;;;;;16.08;100.00;102788.45;1972146;73;33377;-74
2021/08/31 02:19:14;;;;;;;45.03;42.03;;;;;;;16.04;100.00;102796.58;1972186;73;33577;-70
2021/08/31 02:24:39;;;;;;;43.90;41.10;;;;;;;16.02;100.00;102793.75;1971956;73;32927;-70
2021/08/31 02:30:05;;;;;;;44.10;40.97;;;;;;;16.04;100.00;102792.37;1971970;73;32927;-74
2021/08/31 02:35:31;;;;;;;45.00;42.10;;;;;;;16.05;100.00;102794.03;1972176;73;33412;-70
2021/08/31 02:40:55;;;;;;;45.80;42.67;;;;;;;16.02;100.00;102788.98;1972114;73;33605;-70
2021/08/31 02:46:20;;;;;;;43.60;40.80;;;;;;;16.04;100.00;102783.97;1972056;73;32933;-70
2021/08/31 02:51:44;;;;;;;44.67;41.80;;;;;;;16.05;100.00;102794.03;1971969;73;32915;-73
2021/08/31 02:57:09;;;;;;;44.67;41.87;;;;;;;16.11;100.00;102794.91;1971898;73;32931;-73
2021/08/31 03:02:33;;;;;;;43.00;40.20;;;;;;;16.06;100.00;102792.92;1972181;72;32955;-71
2021/08/31 03:08:01;;;;;;;45.27;42.20;;;;;;;16.01;100.00;102785.05;1971993;73;33079;-74
2021/08/31 03:13:25;;;;;;;45.37;42.27;;;;;;;16.03;100.00;102793.48;1971930;73;32995;-73
2021/08/31 03:18:50;;;;;;;45.47;42.43;;;;;;;16.03;100.00;102790.69;1971933;73;32989;-74
2021/08/31 03:24:14;;;;;;;46.33;43.23;;;;;;;16.01;100.00;102791.50;1971877;73;33009;-74
2021/08/31 03:29:40;;;;;;;46.87;43.37;;;;;;;16.00;100.00;102803.02;1971940;73;32910;-70
2021/08/31 03:35:05;;;;;;;46.67;43.57;;;;;;;15.93;100.00;102803.24;1971947;73;32915;-70
2021/08/31 03:40:29;;;;;;;45.00;41.90;;;;;;;15.95;100.00;102809.44;1972162;73;33477;-73
2021/08/31 03:45:54;;;;;;;45.40;42.17;;;;;;;15.91;100.00;102810.55;1972173;73;33395;-70
2021/08/31 03:51:20;;;;;;;45.63;42.50;;;;;;;15.91;100.00;102813.35;1971896;72;33002;-76
2021/08/31 03:56:44;;;;;;;47.80;44.50;;;;;;;15.95;100.00;102806.63;1971880;73;32951;-74
2021/08/31 04:02:09;;;;;;;47.67;44.13;;;;;;;15.85;100.00;102814.98;1905891;73;39599;-73
2021/08/31 04:07:33;;;;;;;47.87;44.67;;;;;;;15.94;100.00;102814.75;1971937;73;32926;-72
2021/08/31 04:12:59;;;;;;;46.83;43.63;;;;;;;15.92;100.00;102821.17;1971958;73;32979;-76
2021/08/31 04:18:24;;;;;;;45.20;41.93;;;;;;;15.95;100.00;102812.23;1971946;73;32920;-70
2021/08/31 04:23:49;;;;;;;47.80;44.57;;;;;;;15.93;100.00;102816.70;1971966;73;31075;-74
2021/08/31 04:29:13;;;;;;;45.63;42.37;;;;;;;15.87;100.00;102806.58;1971977;73;33010;-73
2021/08/31 04:34:37;;;;;;;46.67;43.30;;;;;;;15.92;100.00;102819.22;1972220;73;33454;-74
2021/08/31 04:40:02;;;;;;;48.17;44.97;;;;;;;15.88;100.00;102820.03;1971957;73;33055;-70
2021/08/31 04:45:27;;;;;;;46.67;43.40;;;;;;;15.86;100.00;102821.73;1972186;73;33425;-70
2021/08/31 04:50:55;;;;;;;46.60;43.07;;;;;;;15.85;100.00;102824.80;1972220;73;33501;-74
2021/08/31 04:56:19;;;;;;;46.80;43.40;;;;;;;15.79;100.00;102825.31;1972152;73;32939;-74
2021/08/31 05:01:44;;;;;;;45.37;42.00;;;;;;;15.84;100.00;102829.55;1972067;72;32895;-70
2021/08/31 05:07:11;;;;;;;46.70;43.30;;;;;;;15.78;100.00;102836.27;1972278;73;32970;-70
2021/08/31 05:12:39;;;;;;;48.67;45.10;;;;;;;15.82;100.00;102836.56;1971978;73;32919;-77
2021/08/31 05:18:07;;;;;;;47.57;44.37;;;;;;;15.77;100.00;102842.98;1972038;73;33002;-76
2021/08/31 05:23:33;;;;;;;46.83;43.30;;;;;;;15.85;100.00;102833.20;1971937;73;32929;-71
2021/08/31 05:28:58;;;;;;;46.87;43.63;;;;;;;15.79;100.00;102845.48;1972219;73;33472;-74
2021/08/31 05:34:22;;;;;;;49.03;45.77;;;;;;;15.81;100.00;102848.88;1972164;73;33488;-73
2021/08/31 05:39:53;;;;;;;46.17;42.97;;;;;;;15.83;100.00;102860.09;1971960;73;32992;-70
2021/08/31 05:45:21;;;;;;;49.93;46.53;;;;;;;15.83;100.00;102857.88;1971934;72;32968;-74
2021/08/31 05:50:46;;;;;;;47.67;44.30;;;;;;;15.95;100.00;102859.89;1972223;73;33466;-74
2021/08/31 05:56:11;;;;;;;51.03;47.67;;;;;;;15.87;100.00;102863.22;1971903;73;32986;-70
2021/08/31 06:01:36;;;;;;;48.03;44.83;;;;;;;15.89;100.00;102863.22;1972222;73;33599;-73
2021/08/31 06:07:01;;;;;;;46.70;43.60;;;;;;;15.78;100.00;102871.84;1971984;73;33018;-74
2021/08/31 06:12:25;;;;;;;48.27;44.93;;;;;;;15.75;100.00;102870.97;1971970;73;32988;-70
2021/08/31 06:17:50;;;;;;;48.10;44.90;;;;;;;15.83;100.00;102875.50;1972138;73;33404;-71
2021/08/31 06:23:15;;;;;;;48.43;45.03;;;;;;;15.81;100.00;102872.70;1937200;74;33004;-77
2021/08/31 06:28:39;;;;;;;47.57;44.33;;;;;;;15.83;100.00;102883.09;1972217;73;33023;-70
2021/08/31 06:34:06;;;;;;;48.97;45.87;;;;;;;15.88;100.00;102890.11;1971930;73;33001;-79
2021/08/31 06:39:31;;;;;;;49.13;45.57;;;;;;;15.94;100.00;102888.48;1971976;73;33051;-73
2021/08/31 06:44:55;;;;;;;47.33;44.13;;;;;;;16.08;100.00;102897.80;1971977;73;33116;-70
2021/08/31 06:50:20;;;;;;;51.63;48.10;;;;;;;16.03;100.00;102895.81;1972195;73;33515;-70
2021/08/31 06:55:45;;;;;;;47.47;44.17;;;;;;;16.18;100.00;102907.65;1971979;73;32990;-76
2021/08/31 07:01:10;;;;;;;49.13;45.60;;;;;;;16.21;100.00;102910.78;1971980;73;33047;-73
2021/08/31 07:06:37;;;;;;;48.13;44.70;;;;;;;16.19;100.00;102903.73;1972236;72;33498;-73
2021/08/31 07:12:02;;;;;;;47.60;44.10;;;;;;;16.19;100.00;102914.95;1971969;73;32910;-71
2021/08/31 07:17:27;;;;;;;47.23;43.83;;;;;;;16.17;100.00;102905.98;1971963;73;32986;-73
2021/08/31 07:22:53;;;;;;;48.87;45.47;;;;;;;16.18;100.00;102914.11;1971867;73;33016;-70
2021/08/31 07:28:18;;;;;;;49.27;45.87;;;;;;;16.17;100.00;102914.39;1972098;73;33480;-69
2021/08/31 07:33:43;;;;;;;49.53;46.03;;;;;;;16.18;100.00;102923.92;1971855;73;32921;-73
2021/08/31 07:39:08;;;;;;;47.90;44.87;;;;;;;16.23;100.00;102921.14;1972152;73;33528;-75
2021/08/31 07:44:32;;;;;;;47.77;44.37;;;;;;;16.24;100.00;102922.84;1971975;73;32989;-71
2021/08/31 07:49:57;;;;;;;47.73;44.33;;;;;;;16.32;100.00;102925.13;1972141;73;33424;-73
2021/08/31 07:55:22;;;;;;;47.60;44.30;;;;;;;16.31;100.00;102931.84;1971997;73;31038;-70
2021/08/31 08:00:47;;;;;;;45.70;42.37;;;;;;;16.30;100.00;102927.92;1972316;73;33394;-73
2021/08/31 08:06:12;;;;;;;47.17;43.87;;;;;;;16.38;100.00;102925.99;1972243;73;33503;-70
2021/08/31 08:11:36;;;;;;;49.23;45.83;;;;;;;16.53;100.00;102939.23;1972058;73;30966;-72
2021/08/31 08:17:01;;;;;;;50.53;47.23;;;;;;;16.41;100.00;102942.27;1972255;73;33026;-70
2021/08/31 08:22:28;;;;;;;49.50;46.40;;;;;;;16.50;100.00;102942.03;1950048;73;32964;-73
2021/08/31 08:27:53;;;;;;;45.40;42.40;;;;;;;16.54;100.00;102935.30;1972003;73;33002;-71
2021/08/31 08:33:18;;;;;;;46.73;43.33;;;;;;;16.63;100.00;102940.70;1972096;73;32969;-73
2021/08/31 08:38:43;;;;;;;45.70;42.50;;;;;;;16.64;100.00;102940.45;1972019;73;33004;-70
2021/08/31 08:44:08;;;;;;;47.47;44.27;;;;;;;16.75;100.00;102944.96;1972229;73;33504;-73
2021/08/31 08:49:34;;;;;;;46.37;43.33;;;;;;;17.18;100.00;102944.20;1972308;73;31469;-73
2021/08/31 08:54:59;;;;;;;46.13;43.07;;;;;;;17.39;100.00;102940.84;1972267;73;31495;-70
2021/08/31 09:00:28;;;;;;;42.03;39.37;;;;;;;17.29;100.00;102938.31;1972267;73;33450;-70
2021/08/31 09:06:12;;;;;;;42.10;39.40;;;;;;;17.42;100.00;102947.30;1972168;73;33058;-75
2021/08/31 09:11:41;;;;;;;42.87;40.10;;;;;;;17.51;100.00;102951.25;1972148;73;33464;-73
2021/08/31 09:17:19;;;;;;;40.50;38.03;;;;;;;17.44;100.00;102952.95;1971952;72;33001;-72
2021/08/31 09:22:48;;;;;;;41.00;38.40;;;;;;;17.49;100.00;102957.73;1961286;71;30961;-74
2021/08/31 09:28:24;;;;;;;40.23;37.63;;;;;;;17.54;100.00;102959.14;1972056;73;32984;-71
2021/08/31 09:33:57;;;;;;;41.13;38.50;;;;;;;17.60;100.00;102972.92;1972188;73;33479;-73
2021/08/31 09:39:30;;;;;;;40.40;37.70;;;;;;;17.76;100.00;102965.32;1971964;72;31054;-71
2021/08/31 09:45:04;;;;;;;41.63;38.83;;;;;;;17.71;100.00;102974.59;1971914;73;33011;-71
2021/08/31 09:50:38;;;;;;;41.17;38.47;;;;;;;17.72;100.00;102966.45;1972012;73;31021;-71
2021/08/31 09:56:10;;;;;;;41.17;38.57;;;;;;;17.96;100.00;102965.31;1971978;73;32913;-73
2021/08/31 10:01:35;;;;;;;42.27;39.27;;;;;;;17.97;100.00;102959.95;1972231;73;31514;-73
2021/08/31 10:07:03;;;;;;;40.37;37.77;;;;;;;18.01;100.00;102963.06;1972174;73;30965;-71
2021/08/31 10:12:30;;;;;;;42.10;39.47;;;;;;;17.92;100.00;102944.52;1972141;73;30966;-71
2021/08/31 10:17:57;;;;;;;40.07;37.53;;;;;;;18.24;100.00;102965.80;1972269;73;31415;-71
2021/08/31 10:23:29;;;;;;;40.63;38.13;;;;;;;18.26;100.00;102964.41;1972044;73;31014;-73
2021/08/31 10:29:32;;;;;;;38.53;36.13;;;;;;;18.30;100.00;102957.08;1971985;73;30956;-73
2021/08/31 10:34:56;;;;;;;38.70;36.40;;;;;;;18.35;100.00;102954.81;1972214;73;33355;-74
2021/08/31 10:40:32;;;;;;;36.70;34.60;;;;;;;18.25;100.00;102957.64;1972311;73;31413;-71
2021/08/31 10:45:59;;;;;;;37.87;35.57;;;;;;;18.08;100.00;102967.82;1972093;73;31135;-74
2021/08/31 10:51:32;;;;;;;37.67;35.37;;;;;;;18.18;100.00;102981.28;1972027;73;31110;-73
2021/08/31 10:56:58;;;;;;;36.87;34.43;;;;;;;18.38;100.00;102976.18;1972039;73;30935;-72
2021/08/31 11:02:57;;;;;;;37.50;35.20;;;;;;;18.42;100.00;102977.84;1972130;73;31029;-70
2021/08/31 11:08:22;;;;;;;37.70;35.30;;;;;;;18.41;100.00;102988.83;1972154;73;30946;-73
2021/08/31 11:13:56;;;;;;;38.00;35.70;;;;;;;18.47;100.00;102988.53;1972269;73;31543;-70
2021/08/31 11:19:29;;;;;;;37.43;35.23;;;;;;;18.64;100.00;102982.59;1972016;72;31002;-73
2021/08/31 11:24:56;;;;;;;36.07;33.97;;;;;;;19.02;100.00;102976.77;1972110;73;30945;-73
2021/08/31 11:30:22;;;;;;;35.80;33.30;;;;;;;19.11;100.00;102973.61;1972110;73;30953;-71
2021/08/31 11:33:11;;;;;;;35.33;33.23;;;;;;;19.15;100.00;102978.94;1934877;74;24650;-73
2021/08/31 11:38:38;;;;;;;35.03;32.83;;;;;;;19.56;100.00;102968.22;1972229;73;31519;-71
2021/08/31 11:44:15;;;;;;;33.93;31.93;;;;;;;19.67;100.00;102959.13;1972006;72;31065;-73
2021/08/31 11:49:40;;;;;;;32.53;30.63;;;;;;;19.84;100.00;102966.58;1972080;73;33456;-71
2021/08/31 11:55:07;;;;;;;33.40;31.50;;;;;;;19.84;100.00;102954.73;1972243;73;31034;-71
2021/08/31 12:00:46;;;;;;;33.60;31.53;;;;;;;20.05;100.00;102954.52;1972231;73;31459;-70
2021/08/31 12:06:18;;;;;;;34.33;32.33;;;;;;;19.88;100.00;102955.81;1972050;73;30926;-71
2021/08/31 12:11:44;;;;;;;33.03;31.13;;;;;;;19.91;100.00;102957.19;1972176;73;31543;-74
2021/08/31 12:17:12;;;;;;;32.80;30.87;;;;;;;19.58;100.00;102963.71;1971979;73;31001;-70
2021/08/31 12:22:41;;;;;;;34.60;32.67;;;;;;;19.10;100.00;102962.91;1971912;72;30975;-74
2021/08/31 12:28:07;;;;;;;34.17;32.27;;;;;;;19.10;100.00;102969.95;1971972;73;30925;-74
2021/08/31 12:33:32;;;;;;;32.23;30.33;;;;;;;18.92;100.00;102972.58;1972239;73;31493;-74
2021/08/31 12:38:59;;;;;;;32.57;30.83;;;;;;;18.81;100.00;102977.44;1972118;73;33426;-72
2021/08/31 12:44:33;;;;;;;32.53;30.83;;;;;;;18.95;100.00;102975.69;1972066;73;30928;-72
2021/08/31 12:50:10;;;;;;;33.27;31.37;;;;;;;18.93;100.00;102971.45;1972241;73;33420;-79
2021/08/31 12:55:40;;;;;;;33.80;31.87;;;;;;;18.98;100.00;102967.21;1972092;73;30951;-72
2021/08/31 13:01:25;;;;;;;32.90;30.93;;;;;;;19.01;100.00;102968.02;1972007;73;30937;-73
2021/08/31 13:06:54;;;;;;;33.70;31.80;;;;;;;18.86;100.00;102970.38;1971987;73;31012;-73
2021/08/31 13:12:19;;;;;;;32.60;30.63;;;;;;;18.93;100.00;102961.04;1972156;73;31414;-73
2021/08/31 13:17:51;;;;;;;32.23;30.37;;;;;;;19.11;100.00;102958.12;1971966;73;30994;-73
2021/08/31 13:23:16;;;;;;;30.73;28.90;;;;;;;19.39;100.00;102959.30;1937437;74;31539;-73
2021/08/31 13:28:40;;;;;;;30.50;28.80;;;;;;;19.65;100.00;102948.69;1972167;73;31543;-73
2021/08/31 13:34:07;;;;;;;27.83;26.23;;;;;;;19.88;100.00;102947.36;1972225;73;31431;-73
2021/08/31 13:39:32;;;;;;;29.40;27.90;;;;;;;20.14;100.00;102940.88;1972020;73;30936;-75
2021/08/31 13:44:56;;;;;;;27.03;25.63;;;;;;;20.18;100.00;102939.70;1972223;73;30994;-73
2021/08/31 13:50:21;;;;;;;27.13;25.63;;;;;;;20.25;100.00;102940.17;1971933;73;30934;-73
2021/08/31 13:55:46;;;;;;;29.60;27.80;;;;;;;20.05;100.00;102946.90;1972065;72;30940;-73
2021/08/31 14:01:10;;;;;;;31.83;29.93;;;;;;;19.69;100.00;102949.78;1972210;73;31560;-74
2021/08/31 14:06:35;;;;;;;33.53;31.60;;;;;;;19.56;100.00;102945.67;1972071;73;30966;-73
2021/08/31 14:12:00;;;;;;;33.47;31.37;;;;;;;19.29;100.00;102946.72;1972199;73;31543;-72
2021/08/31 14:17:24;;;;;;;34.67;32.57;;;;;;;19.18;100.00;102954.95;1972163;73;31480;-72
2021/08/31 14:22:49;;;;;;;33.27;31.30;;;;;;;19.21;100.00;102944.53;1972096;73;32946;-79
2021/08/31 14:28:16;;;;;;;34.37;32.27;;;;;;;19.31;100.00;102941.62;1972149;73;31554;-74
2021/08/31 14:33:41;;;;;;;32.10;30.30;;;;;;;19.41;100.00;102936.76;1972007;73;30993;-74
2021/08/31 14:39:05;;;;;;;31.97;30.20;;;;;;;19.38;100.00;102931.69;1972128;73;31036;-74
2021/08/31 14:44:36;;;;;;;32.07;30.07;;;;;;;19.61;100.00;102937.73;1972325;73;31497;-74
2021/08/31 14:50:01;;;;;;;31.27;29.47;;;;;;;19.66;100.00;102939.95;1972162;73;31087;-72
2021/08/31 14:55:26;;;;;;;31.10;29.37;;;;;;;19.64;100.00;102937.98;1972131;73;30941;-71
2021/08/31 15:00:50;;;;;;;32.70;30.80;;;;;;;19.75;100.00;102941.00;1972052;73;30947;-74
2021/08/31 15:06:15;;;;;;;33.87;31.97;;;;;;;19.76;100.00;102944.66;1972388;73;30971;-72
2021/08/31 15:11:41;;;;;;;34.27;32.27;;;;;;;19.52;100.00;102953.03;1971958;73;31011;-72
2021/08/31 15:17:15;;;;;;;33.90;31.80;;;;;;;19.49;100.00;102951.66;1972246;73;33447;-72
2021/08/31 15:22:41;;;;;;;33.90;31.80;;;;;;;19.44;100.00;102946.06;1947355;73;30947;-74
2021/08/31 15:28:07;;;;;;;33.97;31.87;;;;;;;19.50;100.00;102958.14;1972238;73;31001;-72
2021/08/31 15:33:37;;;;;;;34.13;32.07;;;;;;;19.54;100.00;102950.77;1972100;73;31027;-79
2021/08/31 15:39:04;;;;;;;34.07;32.03;;;;;;;19.65;100.00;102946.72;1972114;73;30934;-76
2021/08/31 15:44:35;;;;;;;33.63;31.83;;;;;;;19.53;100.00;102946.27;1972294;73;31518;-74
2021/08/31 15:50:00;;;;;;;34.63;32.60;;;;;;;19.55;100.00;102944.02;1972037;73;30921;-78
2021/08/31 15:55:25;;;;;;;34.13;31.87;;;;;;;19.58;100.00;102952.43;1972084;73;30941;-75
2021/08/31 16:00:50;;;;;;;34.77;32.87;;;;;;;19.55;100.00;102954.69;1972340;73;30948;-77
2021/08/31 16:06:14;;;;;;;34.07;32.07;;;;;;;19.46;100.00;102945.20;1971989;73;30910;-79
2021/08/31 16:11:40;;;;;;;34.50;32.43;;;;;;;19.47;100.00;102947.44;1972002;73;30942;-80
2021/08/31 16:17:06;;;;;;;34.07;31.97;;;;;;;19.54;100.00;102938.09;1972223;73;31015;-76
2021/08/31 16:22:31;;;;;;;34.77;32.73;;;;;;;19.47;100.00;102937.00;1971985;73;31392;-78
2021/08/31 16:27:56;;;;;;;35.40;33.33;;;;;;;19.45;100.00;102938.44;1972260;73;30942;-74
2021/08/31 16:33:23;;;;;;;34.40;32.30;;;;;;;19.33;100.00;102937.95;1972130;73;30928;-78
2021/08/31 16:38:48;;;;;;;34.60;32.57;;;;;;;19.45;100.00;102943.52;1972080;73;30935;-77
2021/08/31 16:44:15;;;;;;;35.53;33.43;;;;;;;19.36;100.00;102941.02;1972046;73;30934;-78
2021/08/31 16:49:40;;;;;;;36.13;34.03;;;;;;;19.30;100.00;102939.92;1972005;73;30924;-74
2021/08/31 16:55:07;;;;;;;35.10;33.10;;;;;;;19.20;100.00;102937.20;1972042;73;31038;-76
2021/08/31 17:00:33;;;;;;;33.43;31.63;;;;;;;18.97;100.00;102934.53;1972027;73;30922;-75
2021/08/31 17:06:02;;;;;;;35.33;33.43;;;;;;;18.90;100.00;102932.62;1971958;73;30966;-69
2021/08/31 17:11:26;;;;;;;36.77;34.57;;;;;;;18.81;100.00;102932.38;1972192;72;30932;-69
2021/08/31 17:16:51;;;;;;;35.93;33.73;;;;;;;18.82;100.00;102944.49;1971976;73;30997;-72
2021/08/31 17:22:15;;;;;;;34.67;32.60;;;;;;;18.80;100.00;102943.93;1971894;73;30971;-74
2021/08/31 17:27:41;;;;;;;36.57;34.47;;;;;;;18.83;100.00;102944.75;1972228;73;30929;-74
2021/08/31 17:33:08;;;;;;;36.80;34.73;;;;;;;18.67;100.00;102949.63;1972195;73;30924;-74
2021/08/31 17:38:35;;;;;;;37.03;34.83;;;;;;;18.67;100.00;102949.63;1971958;73;30953;-74
2021/08/31 17:44:00;;;;;;;35.63;33.57;;;;;;;18.63;100.00;102950.77;1971926;73;31076;-68
2021/08/31 17:49:24;;;;;;;36.50;34.00;;;;;;;18.58;100.00;102952.20;1972157;73;33461;-72
2021/08/31 17:54:50;;;;;;;37.67;35.50;;;;;;;18.47;100.00;102959.55;1972134;73;30974;-69
2021/08/31 18:00:17;;;;;;;37.17;35.07;;;;;;;18.38;100.00;102963.52;1972168;73;30927;-70
2021/08/31 18:05:41;;;;;;;38.37;36.17;;;;;;;18.27;100.00;102961.03;1971971;73;31026;-68
2021/08/31 18:11:06;;;;;;;37.47;35.07;;;;;;;18.30;100.00;102968.89;1972054;73;31041;-71
2021/08/31 18:16:33;;;;;;;36.87;34.67;;;;;;;18.19;100.00;102974.53;1971999;73;31006;-68
2021/08/31 18:21:57;;;;;;;39.07;36.00;;;;;;;18.13;100.00;102979.06;1971877;73;31031;-66
2021/08/31 18:27:22;;;;;;;36.73;34.50;;;;;;;18.09;100.00;102967.55;1972165;73;30943;-67
2021/08/31 18:32:47;;;;;;;37.00;34.93;;;;;;;18.04;100.00;102976.55;1971980;73;31038;-68
2021/08/31 18:38:12;;;;;;;37.23;35.03;;;;;;;18.01;100.00;102978.53;1971902;73;30975;-68
2021/08/31 18:43:37;;;;;;;37.17;35.03;;;;;;;17.90;100.00;102991.75;1971946;73;31067;-72
2021/08/31 18:49:02;;;;;;;36.70;34.50;;;;;;;17.88;100.00;102988.39;1971934;73;30959;-72
2021/08/31 18:54:28;;;;;;;37.30;35.27;;;;;;;17.87;100.00;102992.32;1972183;73;31536;-72
2021/08/31 18:59:53;;;;;;;36.27;34.27;;;;;;;17.79;100.00;103002.73;1971996;73;31000;-69
2021/08/31 19:05:17;;;;;;;36.23;34.03;;;;;;;17.64;100.00;103003.56;1972287;73;31413;-70
2021/08/31 19:10:42;;;;;;;35.10;33.10;;;;;;;17.68;100.00;103008.91;1972086;73;30994;-71
2021/08/31 19:16:07;;;;;;;36.17;34.17;;;;;;;17.59;100.00;103013.39;1972277;73;31506;-71
2021/08/31 19:21:32;;;;;;;36.60;34.40;;;;;;;17.51;100.00;103012.52;1960959;72;31019;-71
2021/08/31 19:26:56;;;;;;;35.53;33.37;;;;;;;17.48;100.00;103019.26;1972135;73;31511;-70
2021/08/31 19:32:24;;;;;;;35.23;33.13;;;;;;;17.50;100.00;103012.22;1972225;73;30943;-72
2021/08/31 19:37:48;;;;;;;36.77;34.47;;;;;;;17.48;100.00;103014.48;1971972;73;30994;-71
2021/08/31 19:43:13;;;;;;;37.00;34.60;;;;;;;17.40;100.00;103009.42;1971883;73;33027;-71
2021/08/31 19:48:44;;;;;;;36.93;34.60;;;;;;;17.34;100.00;103017.55;1971937;73;31012;-71
2021/08/31 19:54:15;;;;;;;38.03;35.70;;;;;;;17.33;100.00;103020.06;1972162;73;31463;-74
2021/08/31 19:59:46;;;;;;;37.20;34.90;;;;;;;17.40;100.00;103019.81;1972221;73;30940;-73
2021/08/31 20:05:12;;;;;;;38.53;36.10;;;;;;;17.29;100.00;103032.42;1972189;73;31470;-68
2021/08/31 20:10:36;;;;;;;37.27;35.03;;;;;;;17.46;100.00;103028.52;1972102;73;31037;-73
2021/08/31 20:16:01;;;;;;;36.77;34.57;;;;;;;17.39;100.00;103036.37;1972000;73;32977;-73
2021/08/31 20:21:26;;;;;;;35.40;33.20;;;;;;;17.34;100.00;103040.58;1972126;73;31524;-74
2021/08/31 20:26:50;;;;;;;36.10;34.00;;;;;;;17.26;100.00;103051.25;1972148;73;31586;-71
2021/08/31 20:32:16;;;;;;;36.97;34.70;;;;;;;17.25;100.00;103060.79;1972235;73;33398;-72
2021/08/31 20:37:41;;;;;;;35.23;33.13;;;;;;;17.13;100.00;103057.39;1971866;73;32967;-72
2021/08/31 20:43:06;;;;;;;36.17;33.97;;;;;;;17.09;100.00;103048.38;1971983;73;31001;-72
2021/08/31 20:48:31;;;;;;;35.20;33.10;;;;;;;17.14;100.00;103058.23;1971885;73;32932;-68
2021/08/31 20:53:56;;;;;;;35.40;33.40;;;;;;;16.97;100.00;103052.84;1971930;73;31104;-66
2021/08/31 20:59:21;;;;;;;35.20;33.10;;;;;;;16.96;100.00;103070.80;1971990;73;30982;-75
2021/08/31 21:07:51;;;;;;;35.60;33.60;;;;;;;16.98;100.00;103076.16;2061314;69;31027;-67
2021/08/31 21:10:21;;;;;;;34.80;32.80;;;;;;;16.98;100.00;103087.39;1950633;73;24168;-69
2021/08/31 21:12:51;;;;;;;35.73;33.73;;;;;;;16.80;100.00;103098.52;2030658;71;26600;-68
2021/08/31 21:15:21;;;;;;;35.07;33.07;;;;;;;16.74;100.00;103099.05;2030653;71;24170;-67
2021/08/31 21:17:51;;;;;;;35.17;33.17;;;;;;;16.84;100.00;103100.52;2030693;71;24167;-67
2021/08/31 21:20:21;;;;;;;35.60;33.60;;;;;;;16.79;100.00;103113.67;2030715;70;24070;-68
2021/08/31 21:22:53;;;;;;;35.63;33.53;;;;;;;16.82;100.00;103109.75;1996368;71;24692;-73
2021/08/31 21:28:17;;;;;;;34.87;32.67;;;;;;;16.70;100.00;103106.32;1971952;73;31082;-68
2021/08/31 21:33:42;;;;;;;35.90;33.80;;;;;;;16.70;100.00;103117.55;1972235;73;30913;-68
2021/08/31 21:39:06;;;;;;;35.90;33.90;;;;;;;16.72;100.00;103127.11;1972108;73;33358;-73
2021/08/31 21:44:31;;;;;;;37.63;35.43;;;;;;;16.73;100.00;103125.97;1972152;73;31421;-67
2021/08/31 21:49:56;;;;;;;36.33;34.03;;;;;;;16.60;100.00;103131.50;1971942;73;32896;-72
2021/08/31 21:55:26;;;;;;;37.43;35.37;;;;;;;16.62;100.00;103138.27;1971986;73;31057;-72
2021/08/31 22:00:51;;;;;;;37.90;35.80;;;;;;;16.44;100.00;103133.04;1971942;73;32974;-70
2021/08/31 22:06:35;;;;;;;35.63;33.43;;;;;;;16.44;100.00;103127.43;2016376;71;33383;-69
2021/08/31 22:12:00;;;;;;;36.63;34.43;;;;;;;16.35;100.00;103137.75;1972152;73;31478;-73
2021/08/31 22:17:24;;;;;;;36.60;34.50;;;;;;;16.43;100.00;103136.98;1972159;73;33420;-69
2021/08/31 22:22:48;;;;;;;36.20;33.90;;;;;;;16.44;100.00;103143.71;1960808;71;31000;-69
2021/08/31 22:28:13;;;;;;;38.10;35.77;;;;;;;16.17;100.00;103150.77;1972001;73;30991;-73
2021/08/31 22:33:38;;;;;;;39.63;37.03;;;;;;;16.17;100.00;103138.73;1972025;73;31000;-73
2021/08/31 22:39:03;;;;;;;38.20;35.90;;;;;;;16.11;100.00;103140.64;1972027;73;30946;-69
2021/08/31 22:44:28;;;;;;;39.90;37.60;;;;;;;16.25;100.00;103131.23;1972290;73;31416;-70
2021/08/31 22:49:54;;;;;;;38.60;36.20;;;;;;;16.24;100.00;103140.20;1971912;73;33017;-73
2021/08/31 22:55:19;;;;;;;38.77;36.10;;;;;;;15.99;100.00;103140.53;1900589;75;33128;-73
2021/08/31 23:00:46;;;;;;;41.10;38.50;;;;;;;16.06;100.00;103139.74;1971914;73;30948;-73
2021/08/31 23:06:11;;;;;;;39.00;36.53;;;;;;;16.14;100.00;103141.50;1972223;73;30948;-73
2021/08/31 23:11:36;;;;;;;39.60;37.20;;;;;;;16.11;100.00;103132.23;1972097;73;33398;-73
2021/08/31 23:17:00;;;;;;;42.00;39.23;;;;;;;15.98;100.00;103128.47;1971911;73;30962;-69
2021/08/31 23:22:25;;;;;;;39.50;37.10;;;;;;;16.05;100.00;103121.22;1972081;73;33564;-68
2021/08/31 23:27:51;;;;;;;39.67;37.07;;;;;;;16.09;100.00;103128.84;1972128;73;33760;-72
2021/08/31 23:33:18;;;;;;;40.30;37.90;;;;;;;16.06;100.00;103125.72;1972179;73;33030;-72
2021/08/31 23:38:43;;;;;;;40.27;37.87;;;;;;;16.11;100.00;103128.58;1972125;73;33481;-69
2021/08/31 23:44:07;;;;;;;40.00;37.33;;;;;;;16.04;100.00;103133.02;1972029;73;33004;-72
2021/08/31 23:49:32;;;;;;;39.17;36.47;;;;;;;16.10;100.00;103136.69;1971921;73;32984;-69
2021/08/31 23:54:57;;;;;;;40.13;37.53;;;;;;;16.04;100.00;103140.03;1971873;73;32893;-69
